sensor_id;sensor_type;location;lat;lon;timestamp;P1;durP1;ratioP1;P2;durP2;ratioP2
3689;SDS011;1861;50.240;8.596;2024-03-23T00:55:47;18.73;;;10.73;;
3689;SDS011;1861;50.240;8.596;2024-03-23T00:58:13;21.33;;;10.07;;
3689;SDS011;1861;50.240;8.596;2024-03-23T01:00:41;23.80;;;10.80;;
3689;SDS011;1861;50.240;8.596;2024-03-23T01:03:07;20.73;;;11.73;;
3689;SDS011;1861;50.240;8.596;2024-03-23T01:05:34;18.97;;;10.60;;
3689;SDS011;1861;50.240;8.596;2024-03-23T01:08:01;17.27;;;9.90;;
3689;SDS011;1861;50.240;8.596;2024-03-23T01:10:29;20.57;;;9.73;;
3689;SDS011;1861;50.240;8.596;2024-03-23T01:12:56;17.83;;;9.77;;
3689;SDS011;1861;50.240;8.596;2024-03-23T01:15:23;24.80;;;10.80;;
3689;SDS011;1861;50.240;8.596;2024-03-23T01:17:49;16.10;;;9.53;;
3689;SDS011;1861;50.240;8.596;2024-03-23T01:20:16;20.63;;;10.20;;
3689;SDS011;1861;50.240;8.596;2024-03-23T01:22:43;20.43;;;9.80;;
3689;SDS011;1861;50.240;8.596;2024-03-23T01:25:10;20.40;;;9.17;;
3689;SDS011;1861;50.240;8.596;2024-03-23T01:27:37;17.40;;;9.60;;
3689;SDS011;1861;50.240;8.596;2024-03-23T01:30:05;18.50;;;9.27;;
3689;SDS011;1861;50.240;8.596;2024-03-23T01:32:33;16.77;;;9.47;;
3689;SDS011;1861;50.240;8.596;2024-03-23T01:35:00;19.13;;;9.70;;
3689;SDS011;1861;50.240;8.596;2024-03-23T01:37:26;17.43;;;8.50;;
3689;SDS011;1861;50.240;8.596;2024-03-23T01:39:53;20.27;;;9.97;;
3689;SDS011;1861;50.240;8.596;2024-03-23T01:42:19;17.57;;;9.67;;
3689;SDS011;1861;50.240;8.596;2024-03-23T01:44:48;15.37;;;9.00;;
3689;SDS011;1861;50.240;8.596;2024-03-23T01:47:14;16.83;;;8.90;;
3689;SDS011;1861;50.240;8.596;2024-03-23T01:49:42;24.70;;;9.83;;
3689;SDS011;1861;50.240;8.596;2024-03-23T01:52:08;15.57;;;8.37;;
3689;SDS011;1861;50.240;8.596;2024-03-23T01:54:36;18.00;;;9.10;;
3689;SDS011;1861;50.240;8.596;2024-03-23T01:57:03;16.37;;;9.23;;
3689;SDS011;1861;50.240;8.596;2024-03-23T01:59:31;15.60;;;8.67;;
3689;SDS011;1861;50.240;8.596;2024-03-23T02:01:59;18.63;;;8.40;;
3689;SDS011;1861;50.240;8.596;2024-03-23T02:04:28;16.60;;;8.03;;
3689;SDS011;1861;50.240;8.596;2024-03-23T02:06:54;18.03;;;8.83;;
3689;SDS011;1861;50.240;8.596;2024-03-23T02:09:21;14.13;;;7.63;;
3689;SDS011;1861;50.240;8.596;2024-03-23T02:11:48;15.33;;;8.63;;
3689;SDS011;1861;50.240;8.596;2024-03-23T02:14:16;15.20;;;8.07;;
3689;SDS011;1861;50.240;8.596;2024-03-23T02:16:42;17.43;;;7.93;;
3689;SDS011;1861;50.240;8.596;2024-03-23T02:19:11;12.70;;;7.10;;
3689;SDS011;1861;50.240;8.596;2024-03-23T02:21:37;14.37;;;7.30;;
3689;SDS011;1861;50.240;8.596;2024-03-23T02:24:06;12.73;;;7.00;;
3689;SDS011;1861;50.240;8.596;2024-03-23T02:26:32;14.57;;;7.90;;
3689;SDS011;1861;50.240;8.596;2024-03-23T02:28:59;13.90;;;7.10;;
3689;SDS011;1861;50.240;8.596;2024-03-23T02:31:26;11.00;;;6.20;;
3689;SDS011;1861;50.240;8.596;2024-03-23T02:33:53;18.17;;;6.50;;
3689;SDS011;1861;50.240;8.596;2024-03-23T02:36:19;9.73;;;5.93;;
3689;SDS011;1861;50.240;8.596;2024-03-23T02:38:47;13.40;;;6.47;;
3689;SDS011;1861;50.240;8.596;2024-03-23T02:41:14;9.37;;;5.90;;
3689;SDS011;1861;50.240;8.596;2024-03-23T02:43:48;11.37;;;6.63;;
3689;SDS011;1861;50.240;8.596;2024-03-23T02:46:15;13.00;;;5.77;;
3689;SDS011;1861;50.240;8.596;2024-03-23T02:48:42;10.70;;;5.87;;
3689;SDS011;1861;50.240;8.596;2024-03-23T02:51:08;11.53;;;6.70;;
3689;SDS011;1861;50.240;8.596;2024-03-23T02:53:35;17.33;;;8.50;;
3689;SDS011;1861;50.240;8.596;2024-03-23T02:56:02;11.87;;;6.83;;
3689;SDS011;1861;50.240;8.596;2024-03-23T02:58:31;13.87;;;7.03;;
3689;SDS011;1861;50.240;8.596;2024-03-23T03:00:57;14.70;;;8.03;;
3689;SDS011;1861;50.240;8.596;2024-03-23T03:03:24;12.87;;;7.27;;
3689;SDS011;1861;50.240;8.596;2024-03-23T03:05:54;14.00;;;7.10;;
3689;SDS011;1861;50.240;8.596;2024-03-23T03:08:22;15.43;;;8.23;;
3689;SDS011;1861;50.240;8.596;2024-03-23T03:10:48;13.47;;;6.77;;
3689;SDS011;1861;50.240;8.596;2024-03-23T03:13:15;12.40;;;7.07;;
3689;SDS011;1861;50.240;8.596;2024-03-23T03:15:43;14.77;;;7.90;;
3689;SDS011;1861;50.240;8.596;2024-03-23T03:18:10;11.90;;;6.50;;
3689;SDS011;1861;50.240;8.596;2024-03-23T03:20:37;17.00;;;7.43;;
3689;SDS011;1861;50.240;8.596;2024-03-23T03:23:05;14.63;;;8.10;;
3689;SDS011;1861;50.240;8.596;2024-03-23T03:25:32;12.07;;;6.67;;
3689;SDS011;1861;50.240;8.596;2024-03-23T03:27:59;12.47;;;6.87;;
3689;SDS011;1861;50.240;8.596;2024-03-23T03:30:27;13.17;;;7.70;;
3689;SDS011;1861;50.240;8.596;2024-03-23T03:32:55;11.93;;;6.90;;
3689;SDS011;1861;50.240;8.596;2024-03-23T03:35:22;13.80;;;7.30;;
3689;SDS011;1861;50.240;8.596;2024-03-23T03:37:49;12.90;;;7.10;;
3689;SDS011;1861;50.240;8.596;2024-03-23T03:40:15;10.97;;;6.60;;
3689;SDS011;1861;50.240;8.596;2024-03-23T03:42:43;11.73;;;6.73;;
3689;SDS011;1861;50.240;8.596;2024-03-23T03:45:10;15.37;;;6.97;;
3689;SDS011;1861;50.240;8.596;2024-03-23T03:47:37;15.30;;;7.20;;
3689;SDS011;1861;50.240;8.596;2024-03-23T03:50:05;11.63;;;6.60;;
3689;SDS011;1861;50.240;8.596;2024-03-23T03:52:32;12.67;;;6.20;;
3689;SDS011;1861;50.240;8.596;2024-03-23T03:55:01;11.53;;;6.03;;
3689;SDS011;1861;50.240;8.596;2024-03-23T03:57:29;12.80;;;6.10;;
3689;SDS011;1861;50.240;8.596;2024-03-23T03:59:55;10.57;;;6.37;;
3689;SDS011;1861;50.240;8.596;2024-03-23T04:02:22;12.97;;;6.80;;
3689;SDS011;1861;50.240;8.596;2024-03-23T04:04:48;15.43;;;7.33;;
3689;SDS011;1861;50.240;8.596;2024-03-23T04:07:17;9.43;;;5.40;;
3689;SDS011;1861;50.240;8.596;2024-03-23T04:09:44;10.00;;;4.87;;
3689;SDS011;1861;50.240;8.596;2024-03-23T04:12:11;8.40;;;4.40;;
3689;SDS011;1861;50.240;8.596;2024-03-23T04:14:37;5.67;;;3.60;;
3689;SDS011;1861;50.240;8.596;2024-03-23T04:17:04;5.33;;;3.33;;
3689;SDS011;1861;50.240;8.596;2024-03-23T04:19:30;3.30;;;2.60;;
3689;SDS011;1861;50.240;8.596;2024-03-23T04:21:57;4.30;;;1.77;;
3689;SDS011;1861;50.240;8.596;2024-03-23T04:24:25;3.73;;;1.60;;
3689;SDS011;1861;50.240;8.596;2024-03-23T04:26:52;1.83;;;1.33;;
3689;SDS011;1861;50.240;8.596;2024-03-23T04:29:19;1.40;;;1.30;;
3689;SDS011;1861;50.240;8.596;2024-03-23T04:31:46;1.37;;;1.00;;
3689;SDS011;1861;50.240;8.596;2024-03-23T04:34:12;1.47;;;1.33;;
3689;SDS011;1861;50.240;8.596;2024-03-23T04:36:40;1.07;;;0.90;;
3689;SDS011;1861;50.240;8.596;2024-03-23T04:39:06;0.83;;;0.63;;
3689;SDS011;1861;50.240;8.596;2024-03-23T04:41:35;0.77;;;0.70;;
3689;SDS011;1861;50.240;8.596;2024-03-23T04:44:02;1.43;;;0.70;;
3689;SDS011;1861;50.240;8.596;2024-03-23T04:46:29;0.90;;;0.70;;
3689;SDS011;1861;50.240;8.596;2024-03-23T04:48:56;0.70;;;0.60;;
3689;SDS011;1861;50.240;8.596;2024-03-23T04:51:23;1.10;;;0.60;;
3689;SDS011;1861;50.240;8.596;2024-03-23T04:53:50;0.60;;;0.50;;
3689;SDS011;1861;50.240;8.596;2024-03-23T04:56:18;0.67;;;0.50;;
3689;SDS011;1861;50.240;8.596;2024-03-23T04:58:46;0.70;;;0.67;;
3689;SDS011;1861;50.240;8.596;2024-03-23T05:01:12;1.07;;;0.70;;
3689;SDS011;1861;50.240;8.596;2024-03-23T05:03:40;0.90;;;0.80;;
3689;SDS011;1861;50.240;8.596;2024-03-23T05:06:06;0.60;;;0.50;;
3689;SDS011;1861;50.240;8.596;2024-03-23T05:08:33;1.03;;;0.70;;
3689;SDS011;1861;50.240;8.596;2024-03-23T05:10:59;0.70;;;0.60;;
3689;SDS011;1861;50.240;8.596;2024-03-23T05:13:26;0.57;;;0.50;;
3689;SDS011;1861;50.240;8.596;2024-03-23T05:15:54;0.80;;;0.70;;
3689;SDS011;1861;50.240;8.596;2024-03-23T05:18:22;0.70;;;0.60;;
3689;SDS011;1861;50.240;8.596;2024-03-23T05:20:48;0.70;;;0.60;;
3689;SDS011;1861;50.240;8.596;2024-03-23T05:23:15;0.70;;;0.70;;
3689;SDS011;1861;50.240;8.596;2024-03-23T05:25:41;1.10;;;0.70;;
3689;SDS011;1861;50.240;8.596;2024-03-23T05:28:08;0.70;;;0.60;;
3689;SDS011;1861;50.240;8.596;2024-03-23T05:30:34;1.03;;;0.77;;
3689;SDS011;1861;50.240;8.596;2024-03-23T05:33:03;1.27;;;0.90;;
3689;SDS011;1861;50.240;8.596;2024-03-23T05:35:29;1.00;;;0.60;;
3689;SDS011;1861;50.240;8.596;2024-03-23T05:37:57;0.80;;;0.80;;
3689;SDS011;1861;50.240;8.596;2024-03-23T05:40:24;1.33;;;0.87;;
3689;SDS011;1861;50.240;8.596;2024-03-23T05:42:52;0.70;;;0.60;;
3689;SDS011;1861;50.240;8.596;2024-03-23T05:45:18;0.97;;;0.80;;
3689;SDS011;1861;50.240;8.596;2024-03-23T05:47:45;0.90;;;0.60;;
3689;SDS011;1861;50.240;8.596;2024-03-23T05:50:13;0.70;;;0.60;;
3689;SDS011;1861;50.240;8.596;2024-03-23T05:52:40;1.20;;;0.60;;
3689;SDS011;1861;50.240;8.596;2024-03-23T05:55:09;0.50;;;0.40;;
3689;SDS011;1861;50.240;8.596;2024-03-23T05:57:36;1.03;;;0.60;;
3689;SDS011;1861;50.240;8.596;2024-03-23T06:00:02;0.60;;;0.50;;
3689;SDS011;1861;50.240;8.596;2024-03-23T06:02:37;0.60;;;0.50;;
3689;SDS011;1861;50.240;8.596;2024-03-23T06:05:03;0.60;;;0.50;;
3689;SDS011;1861;50.240;8.596;2024-03-23T06:07:32;4.20;;;0.50;;
3689;SDS011;1861;50.240;8.596;2024-03-23T06:09:59;0.63;;;0.60;;
3689;SDS011;1861;50.240;8.596;2024-03-23T06:12:25;1.00;;;0.90;;
3689;SDS011;1861;50.240;8.596;2024-03-23T06:14:52;1.00;;;0.70;;
3689;SDS011;1861;50.240;8.596;2024-03-23T06:17:19;0.60;;;0.60;;
3689;SDS011;1861;50.240;8.596;2024-03-23T06:19:46;0.50;;;0.40;;
3689;SDS011;1861;50.240;8.596;2024-03-23T06:22:12;0.80;;;0.50;;
3689;SDS011;1861;50.240;8.596;2024-03-23T06:24:41;0.53;;;0.40;;
3689;SDS011;1861;50.240;8.596;2024-03-23T06:27:07;0.60;;;0.50;;
3689;SDS011;1861;50.240;8.596;2024-03-23T06:29:34;0.50;;;0.40;;
3689;SDS011;1861;50.240;8.596;2024-03-23T06:32:02;1.00;;;0.50;;
3689;SDS011;1861;50.240;8.596;2024-03-23T06:34:29;0.97;;;0.50;;
3689;SDS011;1861;50.240;8.596;2024-03-23T06:36:55;4.10;;;1.13;;
3689;SDS011;1861;50.240;8.596;2024-03-23T06:39:23;0.90;;;0.50;;
3689;SDS011;1861;50.240;8.596;2024-03-23T06:41:52;1.20;;;0.50;;
3689;SDS011;1861;50.240;8.596;2024-03-23T06:44:20;0.60;;;0.40;;
3689;SDS011;1861;50.240;8.596;2024-03-23T06:46:47;0.70;;;0.50;;
3689;SDS011;1861;50.240;8.596;2024-03-23T06:49:14;0.60;;;0.50;;
3689;SDS011;1861;50.240;8.596;2024-03-23T06:51:41;0.60;;;0.50;;
3689;SDS011;1861;50.240;8.596;2024-03-23T06:54:08;0.60;;;0.47;;
3689;SDS011;1861;50.240;8.596;2024-03-23T06:56:34;0.80;;;0.50;;
3689;SDS011;1861;50.240;8.596;2024-03-23T06:59:03;0.90;;;0.50;;
3689;SDS011;1861;50.240;8.596;2024-03-23T07:01:29;1.93;;;0.70;;
3689;SDS011;1861;50.240;8.596;2024-03-23T07:03:57;1.87;;;0.70;;
3689;SDS011;1861;50.240;8.596;2024-03-23T07:06:23;2.27;;;0.67;;
3689;SDS011;1861;50.240;8.596;2024-03-23T07:08:50;1.43;;;0.90;;
3689;SDS011;1861;50.240;8.596;2024-03-23T07:11:18;1.63;;;0.63;;
3689;SDS011;1861;50.240;8.596;2024-03-23T07:13:46;0.83;;;0.60;;
3689;SDS011;1861;50.240;8.596;2024-03-23T07:16:16;3.47;;;1.00;;
3689;SDS011;1861;50.240;8.596;2024-03-23T07:18:43;2.33;;;0.90;;
3689;SDS011;1861;50.240;8.596;2024-03-23T07:21:10;3.37;;;0.73;;
3689;SDS011;1861;50.240;8.596;2024-03-23T07:23:37;1.00;;;0.80;;
3689;SDS011;1861;50.240;8.596;2024-03-23T07:26:07;4.20;;;1.30;;
3689;SDS011;1861;50.240;8.596;2024-03-23T07:28:33;5.07;;;1.00;;
3689;SDS011;1861;50.240;8.596;2024-03-23T07:31:02;2.83;;;1.07;;
3689;SDS011;1861;50.240;8.596;2024-03-23T07:33:31;3.87;;;1.00;;
3689;SDS011;1861;50.240;8.596;2024-03-23T07:35:58;1.53;;;0.97;;
3689;SDS011;1861;50.240;8.596;2024-03-23T07:38:26;4.23;;;1.03;;
3689;SDS011;1861;50.240;8.596;2024-03-23T07:41:02;1.10;;;1.00;;
3689;SDS011;1861;50.240;8.596;2024-03-23T07:43:29;3.60;;;1.50;;
3689;SDS011;1861;50.240;8.596;2024-03-23T07:45:56;3.47;;;1.47;;
3689;SDS011;1861;50.240;8.596;2024-03-23T07:48:22;4.90;;;2.00;;
3689;SDS011;1861;50.240;8.596;2024-03-23T07:50:58;6.20;;;1.73;;
3689;SDS011;1861;50.240;8.596;2024-03-23T07:53:25;3.70;;;1.83;;
3689;SDS011;1861;50.240;8.596;2024-03-23T07:55:54;6.50;;;1.97;;
3689;SDS011;1861;50.240;8.596;2024-03-23T07:58:21;4.80;;;2.00;;
3689;SDS011;1861;50.240;8.596;2024-03-23T08:00:48;5.03;;;2.00;;
3689;SDS011;1861;50.240;8.596;2024-03-23T08:03:14;8.07;;;2.60;;
3689;SDS011;1861;50.240;8.596;2024-03-23T08:05:41;6.67;;;2.30;;
3689;SDS011;1861;50.240;8.596;2024-03-23T08:08:09;2.40;;;2.03;;
3689;SDS011;1861;50.240;8.596;2024-03-23T08:10:37;3.27;;;2.43;;
3689;SDS011;1861;50.240;8.596;2024-03-23T08:13:12;9.90;;;2.13;;
3689;SDS011;1861;50.240;8.596;2024-03-23T08:15:39;3.43;;;1.90;;
3689;SDS011;1861;50.240;8.596;2024-03-23T08:18:06;7.70;;;2.30;;
3689;SDS011;1861;50.240;8.596;2024-03-23T08:20:33;3.93;;;2.40;;
3689;SDS011;1861;50.240;8.596;2024-03-23T08:22:59;5.70;;;2.27;;
3689;SDS011;1861;50.240;8.596;2024-03-23T08:25:30;6.00;;;2.40;;
3689;SDS011;1861;50.240;8.596;2024-03-23T08:27:57;8.30;;;2.23;;
3689;SDS011;1861;50.240;8.596;2024-03-23T08:30:24;3.07;;;1.97;;
3689;SDS011;1861;50.240;8.596;2024-03-23T08:32:50;6.07;;;2.30;;
3689;SDS011;1861;50.240;8.596;2024-03-23T08:35:18;6.97;;;2.90;;
3689;SDS011;1861;50.240;8.596;2024-03-23T08:37:44;4.80;;;2.60;;
3689;SDS011;1861;50.240;8.596;2024-03-23T08:40:13;8.77;;;2.77;;
3689;SDS011;1861;50.240;8.596;2024-03-23T08:42:40;4.43;;;1.90;;
3689;SDS011;1861;50.240;8.596;2024-03-23T08:45:08;4.70;;;2.03;;
3689;SDS011;1861;50.240;8.596;2024-03-23T08:47:34;6.93;;;2.20;;
3689;SDS011;1861;50.240;8.596;2024-03-23T08:50:02;6.00;;;2.43;;
3689;SDS011;1861;50.240;8.596;2024-03-23T08:52:29;7.33;;;2.23;;
3689;SDS011;1861;50.240;8.596;2024-03-23T08:54:56;5.60;;;2.03;;
3689;SDS011;1861;50.240;8.596;2024-03-23T08:57:23;7.27;;;2.30;;
3689;SDS011;1861;50.240;8.596;2024-03-23T08:59:52;5.20;;;1.70;;
3689;SDS011;1861;50.240;8.596;2024-03-23T09:02:18;4.20;;;2.10;;
3689;SDS011;1861;50.240;8.596;2024-03-23T09:04:46;6.53;;;2.30;;
3689;SDS011;1861;50.240;8.596;2024-03-23T09:07:12;6.70;;;2.80;;
3689;SDS011;1861;50.240;8.596;2024-03-23T09:09:39;6.90;;;2.17;;
3689;SDS011;1861;50.240;8.596;2024-03-23T09:12:06;9.63;;;2.40;;
3689;SDS011;1861;50.240;8.596;2024-03-23T09:14:33;6.80;;;2.33;;
3689;SDS011;1861;50.240;8.596;2024-03-23T09:17:01;18.10;;;2.27;;
3689;SDS011;1861;50.240;8.596;2024-03-23T09:19:28;6.07;;;2.67;;
3689;SDS011;1861;50.240;8.596;2024-03-23T09:21:55;15.47;;;3.97;;
3689;SDS011;1861;50.240;8.596;2024-03-23T09:24:22;9.27;;;2.30;;
3689;SDS011;1861;50.240;8.596;2024-03-23T09:26:48;7.40;;;1.80;;
3689;SDS011;1861;50.240;8.596;2024-03-23T09:29:17;7.40;;;2.60;;
3689;SDS011;1861;50.240;8.596;2024-03-23T09:31:44;6.87;;;2.00;;
3689;SDS011;1861;50.240;8.596;2024-03-23T09:34:12;3.77;;;1.67;;
3689;SDS011;1861;50.240;8.596;2024-03-23T09:36:39;6.00;;;2.23;;
3689;SDS011;1861;50.240;8.596;2024-03-23T09:39:06;7.63;;;2.00;;
3689;SDS011;1861;50.240;8.596;2024-03-23T09:41:34;7.73;;;1.80;;
3689;SDS011;1861;50.240;8.596;2024-03-23T09:44:02;9.43;;;2.00;;
3689;SDS011;1861;50.240;8.596;2024-03-23T09:46:28;6.80;;;1.90;;
3689;SDS011;1861;50.240;8.596;2024-03-23T09:48:59;4.30;;;1.50;;
3689;SDS011;1861;50.240;8.596;2024-03-23T09:51:28;7.00;;;2.00;;
3689;SDS011;1861;50.240;8.596;2024-03-23T09:53:56;6.10;;;1.60;;
3689;SDS011;1861;50.240;8.596;2024-03-23T09:56:22;6.77;;;1.80;;
3689;SDS011;1861;50.240;8.596;2024-03-23T09:58:50;3.40;;;2.17;;
3689;SDS011;1861;50.240;8.596;2024-03-23T10:01:17;2.87;;;1.33;;
3689;SDS011;1861;50.240;8.596;2024-03-23T10:03:45;8.17;;;1.97;;
3689;SDS011;1861;50.240;8.596;2024-03-23T10:06:11;2.67;;;1.40;;
3689;SDS011;1861;50.240;8.596;2024-03-23T10:08:40;3.80;;;1.40;;
3689;SDS011;1861;50.240;8.596;2024-03-23T10:11:12;6.20;;;1.73;;
3689;SDS011;1861;50.240;8.596;2024-03-23T10:13:41;5.87;;;1.60;;
3689;SDS011;1861;50.240;8.596;2024-03-23T10:16:08;4.13;;;1.20;;
3689;SDS011;1861;50.240;8.596;2024-03-23T10:18:39;7.17;;;1.37;;
3689;SDS011;1861;50.240;8.596;2024-03-23T10:21:06;3.30;;;1.33;;
3689;SDS011;1861;50.240;8.596;2024-03-23T10:23:36;9.13;;;1.73;;
3689;SDS011;1861;50.240;8.596;2024-03-23T10:26:18;4.53;;;1.60;;
3689;SDS011;1861;50.240;8.596;2024-03-23T10:28:53;14.23;;;2.10;;
3689;SDS011;1861;50.240;8.596;2024-03-23T10:31:23;9.63;;;1.87;;
3689;SDS011;1861;50.240;8.596;2024-03-23T10:33:50;5.60;;;1.53;;
3689;SDS011;1861;50.240;8.596;2024-03-23T10:36:20;6.53;;;1.50;;
3689;SDS011;1861;50.240;8.596;2024-03-23T10:38:47;4.20;;;1.33;;
3689;SDS011;1861;50.240;8.596;2024-03-23T10:41:17;6.80;;;1.10;;
3689;SDS011;1861;50.240;8.596;2024-03-23T10:43:45;2.83;;;1.20;;
3689;SDS011;1861;50.240;8.596;2024-03-23T10:46:12;5.00;;;1.00;;
3689;SDS011;1861;50.240;8.596;2024-03-23T10:48:40;4.40;;;1.03;;
3689;SDS011;1861;50.240;8.596;2024-03-23T10:51:06;3.70;;;0.83;;
3689;SDS011;1861;50.240;8.596;2024-03-23T10:53:34;1.27;;;0.70;;
3689;SDS011;1861;50.240;8.596;2024-03-23T10:56:02;3.33;;;1.13;;
3689;SDS011;1861;50.240;8.596;2024-03-23T10:58:35;2.50;;;1.10;;
3689;SDS011;1861;50.240;8.596;2024-03-23T11:01:03;3.43;;;0.80;;
3689;SDS011;1861;50.240;8.596;2024-03-23T11:03:32;1.80;;;0.80;;
3689;SDS011;1861;50.240;8.596;2024-03-23T11:06:00;6.23;;;1.20;;
3689;SDS011;1861;50.240;8.596;2024-03-23T11:08:32;3.60;;;0.90;;
3689;SDS011;1861;50.240;8.596;2024-03-23T11:13:46;3.80;;;1.13;;
3689;SDS011;1861;50.240;8.596;2024-03-23T11:16:14;5.50;;;0.97;;
3689;SDS011;1861;50.240;8.596;2024-03-23T11:18:42;4.07;;;1.20;;
3689;SDS011;1861;50.240;8.596;2024-03-23T11:21:09;4.17;;;1.07;;
3689;SDS011;1861;50.240;8.596;2024-03-23T11:23:37;3.57;;;1.20;;
3689;SDS011;1861;50.240;8.596;2024-03-23T11:26:06;2.77;;;1.40;;
3689;SDS011;1861;50.240;8.596;2024-03-23T11:28:34;2.77;;;1.13;;
3689;SDS011;1861;50.240;8.596;2024-03-23T11:31:02;2.10;;;1.30;;
3689;SDS011;1861;50.240;8.596;2024-03-23T11:33:36;3.03;;;1.10;;
3689;SDS011;1861;50.240;8.596;2024-03-23T11:36:02;3.20;;;1.30;;
3689;SDS011;1861;50.240;8.596;2024-03-23T11:38:30;6.20;;;1.40;;
3689;SDS011;1861;50.240;8.596;2024-03-23T11:41:02;3.40;;;1.23;;
3689;SDS011;1861;50.240;8.596;2024-03-23T11:43:30;6.30;;;1.80;;
3689;SDS011;1861;50.240;8.596;2024-03-23T11:45:56;2.83;;;1.40;;
3689;SDS011;1861;50.240;8.596;2024-03-23T11:48:26;2.43;;;1.40;;
3689;SDS011;1861;50.240;8.596;2024-03-23T11:50:54;4.30;;;2.70;;
3689;SDS011;1861;50.240;8.596;2024-03-23T11:53:23;10.23;;;1.73;;
3689;SDS011;1861;50.240;8.596;2024-03-23T11:55:53;4.80;;;1.50;;
3689;SDS011;1861;50.240;8.596;2024-03-23T11:58:22;4.43;;;1.37;;
3689;SDS011;1861;50.240;8.596;2024-03-23T12:00:49;5.17;;;1.47;;
3689;SDS011;1861;50.240;8.596;2024-03-23T12:03:18;5.13;;;1.30;;
3689;SDS011;1861;50.240;8.596;2024-03-23T12:05:49;3.80;;;1.33;;
3689;SDS011;1861;50.240;8.596;2024-03-23T12:08:28;2.47;;;1.43;;
3689;SDS011;1861;50.240;8.596;2024-03-23T12:11:04;4.27;;;1.50;;
3689;SDS011;1861;50.240;8.596;2024-03-23T12:13:33;6.67;;;2.30;;
3689;SDS011;1861;50.240;8.596;2024-03-23T12:16:08;4.87;;;1.77;;
3689;SDS011;1861;50.240;8.596;2024-03-23T12:18:36;4.00;;;1.67;;
3689;SDS011;1861;50.240;8.596;2024-03-23T12:21:04;5.33;;;1.90;;
3689;SDS011;1861;50.240;8.596;2024-03-23T12:23:31;5.10;;;1.40;;
3689;SDS011;1861;50.240;8.596;2024-03-23T12:25:58;3.97;;;1.37;;
3689;SDS011;1861;50.240;8.596;2024-03-23T12:28:25;3.93;;;1.43;;
3689;SDS011;1861;50.240;8.596;2024-03-23T12:30:51;3.90;;;1.53;;
3689;SDS011;1861;50.240;8.596;2024-03-23T12:33:19;3.53;;;1.70;;
3689;SDS011;1861;50.240;8.596;2024-03-23T12:35:46;3.73;;;1.43;;
3689;SDS011;1861;50.240;8.596;2024-03-23T12:38:14;5.17;;;1.60;;
3689;SDS011;1861;50.240;8.596;2024-03-23T12:40:41;3.53;;;1.60;;
3689;SDS011;1861;50.240;8.596;2024-03-23T12:43:07;2.90;;;1.20;;
3689;SDS011;1861;50.240;8.596;2024-03-23T12:45:35;3.83;;;1.20;;
3689;SDS011;1861;50.240;8.596;2024-03-23T12:48:01;3.60;;;1.27;;
3689;SDS011;1861;50.240;8.596;2024-03-23T12:50:28;3.00;;;1.40;;
3689;SDS011;1861;50.240;8.596;2024-03-23T12:52:54;4.10;;;1.83;;
3689;SDS011;1861;50.240;8.596;2024-03-23T12:55:23;3.03;;;2.50;;
3689;SDS011;1861;50.240;8.596;2024-03-23T12:57:49;2.37;;;0.80;;
3689;SDS011;1861;50.240;8.596;2024-03-23T13:00:16;1.43;;;1.00;;
3689;SDS011;1861;50.240;8.596;2024-03-23T13:02:43;2.20;;;0.97;;
3689;SDS011;1861;50.240;8.596;2024-03-23T13:05:11;1.90;;;1.00;;
3689;SDS011;1861;50.240;8.596;2024-03-23T13:07:37;1.03;;;0.90;;
3689;SDS011;1861;50.240;8.596;2024-03-23T13:10:04;1.70;;;1.20;;
3689;SDS011;1861;50.240;8.596;2024-03-23T13:12:33;2.70;;;0.90;;
3689;SDS011;1861;50.240;8.596;2024-03-23T13:15:00;2.40;;;1.00;;
3689;SDS011;1861;50.240;8.596;2024-03-23T13:17:29;2.20;;;1.00;;
3689;SDS011;1861;50.240;8.596;2024-03-23T13:19:56;3.77;;;1.20;;
3689;SDS011;1861;50.240;8.596;2024-03-23T13:22:22;1.70;;;1.20;;
3689;SDS011;1861;50.240;8.596;2024-03-23T13:24:50;0.90;;;0.70;;
3689;SDS011;1861;50.240;8.596;2024-03-23T13:27:16;0.90;;;0.80;;
3689;SDS011;1861;50.240;8.596;2024-03-23T13:29:45;1.13;;;0.70;;
3689;SDS011;1861;50.240;8.596;2024-03-23T13:32:12;4.30;;;0.60;;
3689;SDS011;1861;50.240;8.596;2024-03-23T13:34:40;0.83;;;0.50;;
3689;SDS011;1861;50.240;8.596;2024-03-23T13:37:06;0.70;;;0.50;;
3689;SDS011;1861;50.240;8.596;2024-03-23T13:39:35;1.00;;;0.57;;
3689;SDS011;1861;50.240;8.596;2024-03-23T13:42:01;0.60;;;0.40;;
3689;SDS011;1861;50.240;8.596;2024-03-23T13:44:29;0.60;;;0.40;;
3689;SDS011;1861;50.240;8.596;2024-03-23T13:46:56;0.80;;;0.50;;
3689;SDS011;1861;50.240;8.596;2024-03-23T13:49:25;0.57;;;0.50;;
3689;SDS011;1861;50.240;8.596;2024-03-23T13:51:52;1.23;;;0.60;;
3689;SDS011;1861;50.240;8.596;2024-03-23T13:54:21;1.37;;;0.50;;
3689;SDS011;1861;50.240;8.596;2024-03-23T13:56:48;1.33;;;0.50;;
3689;SDS011;1861;50.240;8.596;2024-03-23T13:59:15;0.60;;;0.50;;
3689;SDS011;1861;50.240;8.596;2024-03-23T14:01:42;0.60;;;0.50;;
3689;SDS011;1861;50.240;8.596;2024-03-23T14:04:12;1.10;;;0.70;;
3689;SDS011;1861;50.240;8.596;2024-03-23T14:06:39;1.10;;;0.80;;
3689;SDS011;1861;50.240;8.596;2024-03-23T14:09:07;0.83;;;0.60;;
3689;SDS011;1861;50.240;8.596;2024-03-23T14:11:34;2.10;;;1.00;;
3689;SDS011;1861;50.240;8.596;2024-03-23T14:14:02;1.03;;;0.70;;
3689;SDS011;1861;50.240;8.596;2024-03-23T14:16:29;1.33;;;0.63;;
3689;SDS011;1861;50.240;8.596;2024-03-23T14:18:56;2.87;;;0.70;;
3689;SDS011;1861;50.240;8.596;2024-03-23T14:21:24;1.13;;;0.70;;
3689;SDS011;1861;50.240;8.596;2024-03-23T14:23:51;2.23;;;0.60;;
3689;SDS011;1861;50.240;8.596;2024-03-23T14:26:19;0.97;;;0.60;;
3689;SDS011;1861;50.240;8.596;2024-03-23T14:28:45;1.40;;;0.67;;
3689;SDS011;1861;50.240;8.596;2024-03-23T14:31:12;1.30;;;0.50;;
3689;SDS011;1861;50.240;8.596;2024-03-23T14:33:39;0.80;;;0.60;;
3689;SDS011;1861;50.240;8.596;2024-03-23T14:36:11;2.00;;;0.60;;
3689;SDS011;1861;50.240;8.596;2024-03-23T14:38:39;2.10;;;0.73;;
3689;SDS011;1861;50.240;8.596;2024-03-23T14:41:06;0.60;;;0.60;;
3689;SDS011;1861;50.240;8.596;2024-03-23T14:43:33;1.90;;;0.93;;
3689;SDS011;1861;50.240;8.596;2024-03-23T14:46:06;1.40;;;0.80;;
3689;SDS011;1861;50.240;8.596;2024-03-23T14:48:33;1.63;;;0.97;;
3689;SDS011;1861;50.240;8.596;2024-03-23T14:51:01;4.07;;;0.80;;
3689;SDS011;1861;50.240;8.596;2024-03-23T14:53:30;0.70;;;0.50;;
3689;SDS011;1861;50.240;8.596;2024-03-23T14:55:59;1.50;;;0.50;;
3689;SDS011;1861;50.240;8.596;2024-03-23T14:58:26;0.60;;;0.53;;
3689;SDS011;1861;50.240;8.596;2024-03-23T15:00:53;0.90;;;0.63;;
3689;SDS011;1861;50.240;8.596;2024-03-23T15:03:25;1.23;;;0.60;;
3689;SDS011;1861;50.240;8.596;2024-03-23T15:05:53;0.60;;;0.50;;
3689;SDS011;1861;50.240;8.596;2024-03-23T15:08:20;1.30;;;0.60;;
3689;SDS011;1861;50.240;8.596;2024-03-23T15:10:48;0.90;;;0.70;;
3689;SDS011;1861;50.240;8.596;2024-03-23T15:13:16;2.40;;;0.60;;
3689;SDS011;1861;50.240;8.596;2024-03-23T15:15:43;2.43;;;0.70;;
3689;SDS011;1861;50.240;8.596;2024-03-23T15:18:10;1.47;;;0.70;;
3689;SDS011;1861;50.240;8.596;2024-03-23T15:20:40;1.73;;;0.50;;
3689;SDS011;1861;50.240;8.596;2024-03-23T15:23:06;3.33;;;0.70;;
3689;SDS011;1861;50.240;8.596;2024-03-23T15:25:34;3.00;;;0.77;;
3689;SDS011;1861;50.240;8.596;2024-03-23T15:28:00;0.90;;;0.70;;
3689;SDS011;1861;50.240;8.596;2024-03-23T15:30:29;2.10;;;0.60;;
3689;SDS011;1861;50.240;8.596;2024-03-23T15:32:55;1.00;;;0.70;;
3689;SDS011;1861;50.240;8.596;2024-03-23T15:35:22;1.77;;;0.67;;
3689;SDS011;1861;50.240;8.596;2024-03-23T15:37:50;1.90;;;0.90;;
3689;SDS011;1861;50.240;8.596;2024-03-23T15:40:18;1.57;;;0.70;;
3689;SDS011;1861;50.240;8.596;2024-03-23T15:42:44;4.90;;;0.70;;
3689;SDS011;1861;50.240;8.596;2024-03-23T15:45:11;2.03;;;0.70;;
3689;SDS011;1861;50.240;8.596;2024-03-23T15:47:39;1.00;;;0.60;;
3689;SDS011;1861;50.240;8.596;2024-03-23T15:50:07;3.03;;;0.60;;
3689;SDS011;1861;50.240;8.596;2024-03-23T15:52:34;1.77;;;0.60;;
3689;SDS011;1861;50.240;8.596;2024-03-23T15:55:02;1.47;;;0.50;;
3689;SDS011;1861;50.240;8.596;2024-03-23T15:57:32;0.60;;;0.50;;
3689;SDS011;1861;50.240;8.596;2024-03-23T16:00:00;0.70;;;0.50;;
3689;SDS011;1861;50.240;8.596;2024-03-23T16:02:26;0.70;;;0.53;;
3689;SDS011;1861;50.240;8.596;2024-03-23T16:04:55;1.20;;;0.70;;
3689;SDS011;1861;50.240;8.596;2024-03-23T16:07:23;1.07;;;0.60;;
3689;SDS011;1861;50.240;8.596;2024-03-23T16:09:50;1.90;;;0.63;;
3689;SDS011;1861;50.240;8.596;2024-03-23T16:12:17;1.37;;;0.60;;